sensor_id;sensor_type;location;lat;lon;timestamp;P1;durP1;ratioP1;P2;durP2;ratioP2
23388;SDS011;11867;51.198;11.966;2023-06-10T00:00:55;8.77;;;5.72;;
23388;SDS011;11867;51.198;11.966;2023-06-10T00:02:18;8.73;;;6.60;;
23388;SDS011;11867;51.198;11.966;2023-06-10T00:03:40;7.10;;;5.75;;
23388;SDS011;11867;51.198;11.966;2023-06-10T00:05:05;9.18;;;6.70;;
23388;SDS011;11867;51.198;11.966;2023-06-10T00:06:30;7.38;;;6.10;;
23388;SDS011;11867;51.198;11.966;2023-06-10T00:07:56;9.10;;;6.40;;
23388;SDS011;11867;51.198;11.966;2023-06-10T00:09:19;7.82;;;5.60;;
23388;SDS011;11867;51.198;11.966;2023-06-10T00:10:42;7.63;;;6.10;;
23388;SDS011;11867;51.198;11.966;2023-06-10T00:12:05;6.40;;;5.80;;
23388;SDS011;11867;51.198;11.966;2023-06-10T00:13:28;7.18;;;6.47;;
23388;SDS011;11867;51.198;11.966;2023-06-10T00:14:53;7.40;;;5.95;;
23388;SDS011;11867;51.198;11.966;2023-06-10T00:16:15;7.07;;;6.38;;
23388;SDS011;11867;51.198;11.966;2023-06-10T00:17:39;8.00;;;6.18;;
23388;SDS011;11867;51.198;11.966;2023-06-10T00:19:02;8.75;;;6.40;;
23388;SDS011;11867;51.198;11.966;2023-06-10T00:20:25;10.73;;;6.53;;
23388;SDS011;11867;51.198;11.966;2023-06-10T00:21:48;6.80;;;5.95;;
23388;SDS011;11867;51.198;11.966;2023-06-10T00:23:10;6.53;;;5.68;;
23388;SDS011;11867;51.198;11.966;2023-06-10T00:24:33;7.93;;;5.93;;
23388;SDS011;11867;51.198;11.966;2023-06-10T00:25:55;7.53;;;6.03;;
23388;SDS011;11867;51.198;11.966;2023-06-10T00:27:18;6.60;;;5.65;;
23388;SDS011;11867;51.198;11.966;2023-06-10T00:28:40;8.32;;;5.28;;
23388;SDS011;11867;51.198;11.966;2023-06-10T00:30:05;6.25;;;5.43;;
23388;SDS011;11867;51.198;11.966;2023-06-10T00:31:28;6.50;;;5.68;;
23388;SDS011;11867;51.198;11.966;2023-06-10T00:32:52;6.97;;;5.40;;
23388;SDS011;11867;51.198;11.966;2023-06-10T00:34:16;10.07;;;5.97;;
23388;SDS011;11867;51.198;11.966;2023-06-10T00:35:39;10.55;;;5.75;;
23388;SDS011;11867;51.198;11.966;2023-06-10T00:37:01;9.70;;;5.72;;
23388;SDS011;11867;51.198;11.966;2023-06-10T00:38:24;9.20;;;5.22;;
23388;SDS011;11867;51.198;11.966;2023-06-10T00:39:46;7.50;;;6.18;;
23388;SDS011;11867;51.198;11.966;2023-06-10T00:41:09;7.28;;;5.32;;
23388;SDS011;11867;51.198;11.966;2023-06-10T00:42:32;6.15;;;5.03;;
23388;SDS011;11867;51.198;11.966;2023-06-10T00:43:54;7.18;;;4.82;;
23388;SDS011;11867;51.198;11.966;2023-06-10T00:45:19;8.10;;;5.38;;
23388;SDS011;11867;51.198;11.966;2023-06-10T00:46:41;8.38;;;5.13;;
23388;SDS011;11867;51.198;11.966;2023-06-10T00:48:04;6.70;;;4.90;;
23388;SDS011;11867;51.198;11.966;2023-06-10T00:49:26;5.28;;;4.78;;
23388;SDS011;11867;51.198;11.966;2023-06-10T00:50:50;6.68;;;5.25;;
23388;SDS011;11867;51.198;11.966;2023-06-10T00:52:13;8.10;;;4.82;;
23388;SDS011;11867;51.198;11.966;2023-06-10T00:53:36;7.75;;;4.75;;
23388;SDS011;11867;51.198;11.966;2023-06-10T00:55:01;7.78;;;5.43;;
23388;SDS011;11867;51.198;11.966;2023-06-10T00:56:23;8.05;;;5.25;;
23388;SDS011;11867;51.198;11.966;2023-06-10T00:57:47;7.72;;;4.88;;
23388;SDS011;11867;51.198;11.966;2023-06-10T00:59:11;6.32;;;4.70;;
23388;SDS011;11867;51.198;11.966;2023-06-10T01:00:34;6.50;;;5.00;;
23388;SDS011;11867;51.198;11.966;2023-06-10T01:01:58;7.10;;;4.78;;
23388;SDS011;11867;51.198;11.966;2023-06-10T01:03:22;9.68;;;4.72;;
23388;SDS011;11867;51.198;11.966;2023-06-10T01:04:44;7.03;;;4.55;;
23388;SDS011;11867;51.198;11.966;2023-06-10T01:06:14;8.82;;;4.53;;
23388;SDS011;11867;51.198;11.966;2023-06-10T01:07:47;5.63;;;4.38;;
23388;SDS011;11867;51.198;11.966;2023-06-10T01:09:18;5.30;;;4.32;;
23388;SDS011;11867;51.198;11.966;2023-06-10T01:10:47;7.82;;;4.80;;
23388;SDS011;11867;51.198;11.966;2023-06-10T01:12:14;7.18;;;4.88;;
23388;SDS011;11867;51.198;11.966;2023-06-10T01:13:41;6.72;;;4.38;;
23388;SDS011;11867;51.198;11.966;2023-06-10T01:15:04;6.80;;;4.60;;
23388;SDS011;11867;51.198;11.966;2023-06-10T01:16:29;6.47;;;4.40;;
23388;SDS011;11867;51.198;11.966;2023-06-10T01:17:53;5.85;;;4.22;;
23388;SDS011;11867;51.198;11.966;2023-06-10T01:19:16;6.03;;;4.38;;
23388;SDS011;11867;51.198;11.966;2023-06-10T01:20:40;7.78;;;4.70;;
23388;SDS011;11867;51.198;11.966;2023-06-10T01:22:06;6.55;;;4.43;;
23388;SDS011;11867;51.198;11.966;2023-06-10T01:23:28;7.78;;;3.90;;
23388;SDS011;11867;51.198;11.966;2023-06-10T01:24:52;5.05;;;4.40;;
23388;SDS011;11867;51.198;11.966;2023-06-10T01:26:15;7.13;;;4.45;;
23388;SDS011;11867;51.198;11.966;2023-06-10T01:27:38;8.27;;;4.53;;
23388;SDS011;11867;51.198;11.966;2023-06-10T01:29:05;8.75;;;4.38;;
23388;SDS011;11867;51.198;11.966;2023-06-10T01:30:32;10.02;;;4.38;;
23388;SDS011;11867;51.198;11.966;2023-06-10T01:32:03;4.18;;;3.72;;
23388;SDS011;11867;51.198;11.966;2023-06-10T01:33:31;8.57;;;4.38;;
23388;SDS011;11867;51.198;11.966;2023-06-10T01:34:57;5.90;;;4.28;;
23388;SDS011;11867;51.198;11.966;2023-06-10T01:36:20;5.90;;;4.38;;
23388;SDS011;11867;51.198;11.966;2023-06-10T01:37:47;7.13;;;4.72;;
23388;SDS011;11867;51.198;11.966;2023-06-10T01:39:12;8.88;;;4.05;;
23388;SDS011;11867;51.198;11.966;2023-06-10T01:40:37;6.25;;;3.72;;
23388;SDS011;11867;51.198;11.966;2023-06-10T01:42:01;5.55;;;4.05;;
23388;SDS011;11867;51.198;11.966;2023-06-10T01:43:26;7.97;;;3.67;;
23388;SDS011;11867;51.198;11.966;2023-06-10T01:44:49;6.60;;;3.92;;
23388;SDS011;11867;51.198;11.966;2023-06-10T01:46:12;8.52;;;4.22;;
23388;SDS011;11867;51.198;11.966;2023-06-10T01:47:35;5.55;;;4.20;;
23388;SDS011;11867;51.198;11.966;2023-06-10T01:48:57;5.68;;;3.80;;
23388;SDS011;11867;51.198;11.966;2023-06-10T01:50:20;6.47;;;4.10;;
23388;SDS011;11867;51.198;11.966;2023-06-10T01:51:42;6.35;;;4.22;;
23388;SDS011;11867;51.198;11.966;2023-06-10T01:53:06;11.88;;;4.55;;
23388;SDS011;11867;51.198;11.966;2023-06-10T01:54:29;7.65;;;4.40;;
23388;SDS011;11867;51.198;11.966;2023-06-10T01:55:51;9.05;;;4.18;;
23388;SDS011;11867;51.198;11.966;2023-06-10T01:57:14;7.80;;;3.80;;
23388;SDS011;11867;51.198;11.966;2023-06-10T01:58:37;7.70;;;4.43;;
23388;SDS011;11867;51.198;11.966;2023-06-10T01:59:59;6.28;;;4.18;;
23388;SDS011;11867;51.198;11.966;2023-06-10T02:01:22;6.45;;;4.22;;
23388;SDS011;11867;51.198;11.966;2023-06-10T02:02:44;5.85;;;4.22;;
23388;SDS011;11867;51.198;11.966;2023-06-10T02:04:07;6.70;;;3.58;;
23388;SDS011;11867;51.198;11.966;2023-06-10T02:05:30;6.93;;;3.95;;
23388;SDS011;11867;51.198;11.966;2023-06-10T02:06:52;4.82;;;3.75;;
23388;SDS011;11867;51.198;11.966;2023-06-10T02:08:16;6.90;;;4.32;;
23388;SDS011;11867;51.198;11.966;2023-06-10T02:09:38;5.57;;;3.90;;
23388;SDS011;11867;51.198;11.966;2023-06-10T02:11:01;6.15;;;3.97;;
23388;SDS011;11867;51.198;11.966;2023-06-10T02:12:23;6.78;;;3.80;;
23388;SDS011;11867;51.198;11.966;2023-06-10T02:13:45;12.88;;;4.00;;
23388;SDS011;11867;51.198;11.966;2023-06-10T02:15:08;5.88;;;4.70;;
23388;SDS011;11867;51.198;11.966;2023-06-10T02:16:31;6.57;;;4.53;;
23388;SDS011;11867;51.198;11.966;2023-06-10T02:17:53;10.57;;;4.38;;
23388;SDS011;11867;51.198;11.966;2023-06-10T02:19:17;8.02;;;4.35;;
23388;SDS011;11867;51.198;11.966;2023-06-10T02:20:43;7.18;;;3.90;;
23388;SDS011;11867;51.198;11.966;2023-06-10T02:22:05;8.20;;;4.22;;
23388;SDS011;11867;51.198;11.966;2023-06-10T02:23:30;6.80;;;4.03;;
23388;SDS011;11867;51.198;11.966;2023-06-10T02:24:52;9.80;;;4.45;;
23388;SDS011;11867;51.198;11.966;2023-06-10T02:26:14;8.80;;;4.18;;
23388;SDS011;11867;51.198;11.966;2023-06-10T02:27:36;8.63;;;4.78;;
23388;SDS011;11867;51.198;11.966;2023-06-10T02:28:59;6.97;;;3.83;;
23388;SDS011;11867;51.198;11.966;2023-06-10T02:30:22;5.40;;;4.15;;
23388;SDS011;11867;51.198;11.966;2023-06-10T02:31:44;9.63;;;4.32;;
23388;SDS011;11867;51.198;11.966;2023-06-10T02:33:07;9.52;;;4.53;;
23388;SDS011;11867;51.198;11.966;2023-06-10T02:34:31;6.85;;;4.82;;
23388;SDS011;11867;51.198;11.966;2023-06-10T02:35:55;7.55;;;4.60;;
23388;SDS011;11867;51.198;11.966;2023-06-10T02:37:17;7.68;;;4.82;;
23388;SDS011;11867;51.198;11.966;2023-06-10T02:38:41;10.70;;;5.03;;
23388;SDS011;11867;51.198;11.966;2023-06-10T02:40:04;8.77;;;4.60;;
23388;SDS011;11867;51.198;11.966;2023-06-10T02:41:27;8.15;;;4.97;;
23388;SDS011;11867;51.198;11.966;2023-06-10T02:42:50;5.90;;;5.05;;
23388;SDS011;11867;51.198;11.966;2023-06-10T02:44:13;9.70;;;4.65;;
23388;SDS011;11867;51.198;11.966;2023-06-10T02:45:35;11.18;;;5.10;;
23388;SDS011;11867;51.198;11.966;2023-06-10T02:46:58;7.57;;;4.60;;
23388;SDS011;11867;51.198;11.966;2023-06-10T02:48:20;9.48;;;4.65;;
23388;SDS011;11867;51.198;11.966;2023-06-10T02:49:43;7.70;;;4.43;;
23388;SDS011;11867;51.198;11.966;2023-06-10T02:51:06;7.82;;;4.95;;
23388;SDS011;11867;51.198;11.966;2023-06-10T02:52:29;9.02;;;4.47;;
23388;SDS011;11867;51.198;11.966;2023-06-10T02:53:53;8.20;;;4.95;;
23388;SDS011;11867;51.198;11.966;2023-06-10T02:55:15;9.10;;;5.07;;
23388;SDS011;11867;51.198;11.966;2023-06-10T02:56:37;7.38;;;4.55;;
23388;SDS011;11867;51.198;11.966;2023-06-10T02:58:03;10.23;;;5.10;;
23388;SDS011;11867;51.198;11.966;2023-06-10T02:59:25;8.75;;;5.05;;
23388;SDS011;11867;51.198;11.966;2023-06-10T03:00:50;8.70;;;5.07;;
23388;SDS011;11867;51.198;11.966;2023-06-10T03:02:12;7.72;;;4.45;;
23388;SDS011;11867;51.198;11.966;2023-06-10T03:03:34;6.68;;;4.57;;
23388;SDS011;11867;51.198;11.966;2023-06-10T03:05:00;10.32;;;4.88;;
23388;SDS011;11867;51.198;11.966;2023-06-10T03:06:22;10.65;;;4.97;;
23388;SDS011;11867;51.198;11.966;2023-06-10T03:07:46;10.65;;;4.90;;
23388;SDS011;11867;51.198;11.966;2023-06-10T03:09:11;8.55;;;5.07;;
23388;SDS011;11867;51.198;11.966;2023-06-10T03:10:33;9.18;;;5.20;;
23388;SDS011;11867;51.198;11.966;2023-06-10T03:11:56;8.73;;;5.38;;
23388;SDS011;11867;51.198;11.966;2023-06-10T03:13:18;6.63;;;5.10;;
23388;SDS011;11867;51.198;11.966;2023-06-10T03:14:41;10.25;;;4.60;;
23388;SDS011;11867;51.198;11.966;2023-06-10T03:16:03;8.88;;;4.85;;
23388;SDS011;11867;51.198;11.966;2023-06-10T03:17:26;9.52;;;5.03;;
23388;SDS011;11867;51.198;11.966;2023-06-10T03:18:48;5.57;;;4.28;;
23388;SDS011;11867;51.198;11.966;2023-06-10T03:20:12;7.93;;;5.18;;
23388;SDS011;11867;51.198;11.966;2023-06-10T03:21:37;8.02;;;5.40;;
23388;SDS011;11867;51.198;11.966;2023-06-10T03:23:00;8.45;;;4.45;;
23388;SDS011;11867;51.198;11.966;2023-06-10T03:24:24;11.75;;;5.10;;
23388;SDS011;11867;51.198;11.966;2023-06-10T03:25:46;11.25;;;5.22;;
23388;SDS011;11867;51.198;11.966;2023-06-10T03:27:10;10.55;;;5.38;;
23388;SDS011;11867;51.198;11.966;2023-06-10T03:28:33;7.15;;;4.63;;
23388;SDS011;11867;51.198;11.966;2023-06-10T03:29:56;7.60;;;5.30;;
23388;SDS011;11867;51.198;11.966;2023-06-10T03:31:18;11.45;;;5.05;;
23388;SDS011;11867;51.198;11.966;2023-06-10T03:32:41;9.50;;;5.07;;
23388;SDS011;11867;51.198;11.966;2023-06-10T03:34:03;7.25;;;4.82;;
23388;SDS011;11867;51.198;11.966;2023-06-10T03:35:26;8.98;;;4.95;;
23388;SDS011;11867;51.198;11.966;2023-06-10T03:36:48;8.80;;;5.47;;
23388;SDS011;11867;51.198;11.966;2023-06-10T03:38:11;9.65;;;5.00;;
23388;SDS011;11867;51.198;11.966;2023-06-10T03:39:34;8.15;;;5.78;;
23388;SDS011;11867;51.198;11.966;2023-06-10T03:40:57;6.50;;;4.63;;
23388;SDS011;11867;51.198;11.966;2023-06-10T03:42:19;9.80;;;5.68;;
23388;SDS011;11867;51.198;11.966;2023-06-10T03:43:42;7.72;;;4.82;;
23388;SDS011;11867;51.198;11.966;2023-06-10T03:45:06;7.80;;;5.50;;
23388;SDS011;11867;51.198;11.966;2023-06-10T03:46:29;8.73;;;5.57;;
23388;SDS011;11867;51.198;11.966;2023-06-10T03:47:52;10.40;;;5.38;;
23388;SDS011;11867;51.198;11.966;2023-06-10T03:49:15;10.13;;;6.15;;
23388;SDS011;11867;51.198;11.966;2023-06-10T03:50:38;9.25;;;5.25;;
23388;SDS011;11867;51.198;11.966;2023-06-10T03:52:00;11.10;;;5.00;;
23388;SDS011;11867;51.198;11.966;2023-06-10T03:53:23;9.10;;;5.40;;
23388;SDS011;11867;51.198;11.966;2023-06-10T03:54:47;10.13;;;5.28;;
23388;SDS011;11867;51.198;11.966;2023-06-10T03:56:10;8.93;;;5.68;;
23388;SDS011;11867;51.198;11.966;2023-06-10T03:57:32;8.35;;;5.25;;
23388;SDS011;11867;51.198;11.966;2023-06-10T03:58:55;9.55;;;5.90;;
23388;SDS011;11867;51.198;11.966;2023-06-10T04:00:17;10.35;;;5.28;;
23388;SDS011;11867;51.198;11.966;2023-06-10T04:01:42;10.30;;;6.03;;
23388;SDS011;11867;51.198;11.966;2023-06-10T04:03:05;10.43;;;5.75;;
23388;SDS011;11867;51.198;11.966;2023-06-10T04:04:31;10.85;;;6.22;;
23388;SDS011;11867;51.198;11.966;2023-06-10T04:05:52;8.82;;;5.35;;
23388;SDS011;11867;51.198;11.966;2023-06-10T04:07:15;9.65;;;6.07;;
23388;SDS011;11867;51.198;11.966;2023-06-10T04:08:40;8.20;;;5.88;;
23388;SDS011;11867;51.198;11.966;2023-06-10T04:10:06;9.43;;;5.80;;
23388;SDS011;11867;51.198;11.966;2023-06-10T04:11:29;8.27;;;5.85;;
23388;SDS011;11867;51.198;11.966;2023-06-10T04:12:53;9.93;;;5.65;;
23388;SDS011;11867;51.198;11.966;2023-06-10T04:14:16;10.70;;;5.93;;
23388;SDS011;11867;51.198;11.966;2023-06-10T04:15:39;9.27;;;5.90;;
23388;SDS011;11867;51.198;11.966;2023-06-10T04:17:02;8.63;;;5.50;;
23388;SDS011;11867;51.198;11.966;2023-06-10T04:18:28;9.20;;;5.93;;
23388;SDS011;11867;51.198;11.966;2023-06-10T04:19:51;9.52;;;5.95;;
23388;SDS011;11867;51.198;11.966;2023-06-10T04:21:14;7.50;;;5.60;;
23388;SDS011;11867;51.198;11.966;2023-06-10T04:22:36;8.80;;;5.40;;
23388;SDS011;11867;51.198;11.966;2023-06-10T04:23:59;9.18;;;6.13;;
23388;SDS011;11867;51.198;11.966;2023-06-10T04:25:24;7.72;;;5.07;;
23388;SDS011;11867;51.198;11.966;2023-06-10T04:26:45;9.77;;;5.60;;
23388;SDS011;11867;51.198;11.966;2023-06-10T04:28:08;9.50;;;5.93;;
23388;SDS011;11867;51.198;11.966;2023-06-10T04:29:30;7.47;;;5.45;;
23388;SDS011;11867;51.198;11.966;2023-06-10T04:30:53;12.20;;;5.53;;
23388;SDS011;11867;51.198;11.966;2023-06-10T04:32:16;9.15;;;6.10;;
23388;SDS011;11867;51.198;11.966;2023-06-10T04:33:38;11.88;;;6.47;;
23388;SDS011;11867;51.198;11.966;2023-06-10T04:35:01;8.70;;;5.60;;
23388;SDS011;11867;51.198;11.966;2023-06-10T04:36:24;7.78;;;5.85;;
23388;SDS011;11867;51.198;11.966;2023-06-10T04:37:47;8.15;;;5.22;;
23388;SDS011;11867;51.198;11.966;2023-06-10T04:39:10;10.23;;;6.03;;
23388;SDS011;11867;51.198;11.966;2023-06-10T04:40:33;9.73;;;6.07;;
23388;SDS011;11867;51.198;11.966;2023-06-10T04:41:56;11.15;;;6.25;;
23388;SDS011;11867;51.198;11.966;2023-06-10T04:43:19;11.63;;;6.50;;
23388;SDS011;11867;51.198;11.966;2023-06-10T04:44:42;7.68;;;5.80;;
23388;SDS011;11867;51.198;11.966;2023-06-10T04:46:05;10.90;;;6.57;;
23388;SDS011;11867;51.198;11.966;2023-06-10T04:47:29;9.80;;;6.30;;
23388;SDS011;11867;51.198;11.966;2023-06-10T04:48:55;8.55;;;6.13;;
23388;SDS011;11867;51.198;11.966;2023-06-10T04:50:18;9.60;;;6.40;;
23388;SDS011;11867;51.198;11.966;2023-06-10T04:51:40;10.73;;;6.18;;
23388;SDS011;11867;51.198;11.966;2023-06-10T04:53:04;10.15;;;6.60;;
23388;SDS011;11867;51.198;11.966;2023-06-10T04:54:26;10.90;;;6.20;;
23388;SDS011;11867;51.198;11.966;2023-06-10T04:55:50;10.63;;;6.60;;
23388;SDS011;11867;51.198;11.966;2023-06-10T04:57:12;10.30;;;6.95;;
23388;SDS011;11867;51.198;11.966;2023-06-10T04:58:34;9.70;;;6.45;;
23388;SDS011;11867;51.198;11.966;2023-06-10T04:59:56;9.95;;;6.43;;
23388;SDS011;11867;51.198;11.966;2023-06-10T05:01:20;11.68;;;6.82;;
23388;SDS011;11867;51.198;11.966;2023-06-10T05:02:43;8.25;;;6.28;;
23388;SDS011;11867;51.198;11.966;2023-06-10T05:04:06;8.93;;;6.18;;
23388;SDS011;11867;51.198;11.966;2023-06-10T05:05:28;11.48;;;6.57;;
23388;SDS011;11867;51.198;11.966;2023-06-10T05:06:51;8.55;;;6.13;;
23388;SDS011;11867;51.198;11.966;2023-06-10T05:08:14;7.53;;;5.70;;
23388;SDS011;11867;51.198;11.966;2023-06-10T05:09:37;8.10;;;6.20;;
23388;SDS011;11867;51.198;11.966;2023-06-10T05:11:01;9.05;;;6.47;;
23388;SDS011;11867;51.198;11.966;2023-06-10T05:12:24;8.95;;;6.03;;
23388;SDS011;11867;51.198;11.966;2023-06-10T05:13:47;10.50;;;6.70;;
23388;SDS011;11867;51.198;11.966;2023-06-10T05:15:10;9.50;;;6.30;;
23388;SDS011;11867;51.198;11.966;2023-06-10T05:16:33;10.23;;;6.25;;
23388;SDS011;11867;51.198;11.966;2023-06-10T05:17:56;7.90;;;5.85;;
23388;SDS011;11867;51.198;11.966;2023-06-10T05:19:19;13.95;;;6.85;;
23388;SDS011;11867;51.198;11.966;2023-06-10T05:20:42;10.65;;;7.00;;
23388;SDS011;11867;51.198;11.966;2023-06-10T05:22:05;11.15;;;6.13;;
23388;SDS011;11867;51.198;11.966;2023-06-10T05:23:28;9.32;;;6.70;;
23388;SDS011;11867;51.198;11.966;2023-06-10T05:24:51;9.18;;;6.20;;
23388;SDS011;11867;51.198;11.966;2023-06-10T05:26:15;8.20;;;5.93;;
23388;SDS011;11867;51.198;11.966;2023-06-10T05:27:39;9.77;;;6.47;;
23388;SDS011;11867;51.198;11.966;2023-06-10T05:29:03;14.05;;;6.80;;
23388;SDS011;11867;51.198;11.966;2023-06-10T05:30:27;11.93;;;6.95;;
23388;SDS011;11867;51.198;11.966;2023-06-10T05:31:49;13.45;;;6.35;;
23388;SDS011;11867;51.198;11.966;2023-06-10T05:33:12;16.60;;;6.57;;
23388;SDS011;11867;51.198;11.966;2023-06-10T05:34:34;12.13;;;6.88;;
23388;SDS011;11867;51.198;11.966;2023-06-10T05:35:57;8.13;;;6.32;;
23388;SDS011;11867;51.198;11.966;2023-06-10T05:37:19;11.40;;;6.30;;
23388;SDS011;11867;51.198;11.966;2023-06-10T05:38:42;12.75;;;7.07;;
23388;SDS011;11867;51.198;11.966;2023-06-10T05:40:05;9.30;;;6.88;;
23388;SDS011;11867;51.198;11.966;2023-06-10T05:41:30;10.52;;;6.32;;
23388;SDS011;11867;51.198;11.966;2023-06-10T05:42:53;13.35;;;6.45;;
23388;SDS011;11867;51.198;11.966;2023-06-10T05:44:15;11.40;;;7.25;;
23388;SDS011;11867;51.198;11.966;2023-06-10T05:45:37;13.07;;;8.60;;
23388;SDS011;11867;51.198;11.966;2023-06-10T05:47:02;11.10;;;7.10;;
23388;SDS011;11867;51.198;11.966;2023-06-10T05:48:25;15.68;;;7.88;;
23388;SDS011;11867;51.198;11.966;2023-06-10T05:49:47;10.48;;;7.30;;
23388;SDS011;11867;51.198;11.966;2023-06-10T05:51:11;11.30;;;7.03;;
23388;SDS011;11867;51.198;11.966;2023-06-10T05:52:34;13.95;;;7.25;;
23388;SDS011;11867;51.198;11.966;2023-06-10T05:53:57;10.10;;;6.55;;
23388;SDS011;11867;51.198;11.966;2023-06-10T05:55:20;9.77;;;7.18;;
23388;SDS011;11867;51.198;11.966;2023-06-10T05:56:43;11.82;;;6.80;;
23388;SDS011;11867;51.198;11.966;2023-06-10T05:58:06;10.00;;;6.85;;
23388;SDS011;11867;51.198;11.966;2023-06-10T05:59:28;10.75;;;7.47;;
23388;SDS011;11867;51.198;11.966;2023-06-10T06:00:51;10.35;;;6.68;;
23388;SDS011;11867;51.198;11.966;2023-06-10T06:02:13;10.32;;;6.47;;
23388;SDS011;11867;51.198;11.966;2023-06-10T06:03:35;11.73;;;6.15;;
23388;SDS011;11867;51.198;11.966;2023-06-10T06:04:58;12.88;;;7.15;;
23388;SDS011;11867;51.198;11.966;2023-06-10T06:06:21;10.32;;;7.03;;
23388;SDS011;11867;51.198;11.966;2023-06-10T06:07:44;13.55;;;7.57;;
23388;SDS011;11867;51.198;11.966;2023-06-10T06:09:06;12.45;;;6.88;;
23388;SDS011;11867;51.198;11.966;2023-06-10T06:10:29;10.73;;;6.93;;
23388;SDS011;11867;51.198;11.966;2023-06-10T06:11:53;13.35;;;6.38;;
23388;SDS011;11867;51.198;11.966;2023-06-10T06:13:16;8.80;;;6.82;;
23388;SDS011;11867;51.198;11.966;2023-06-10T06:14:38;8.95;;;7.10;;
23388;SDS011;11867;51.198;11.966;2023-06-10T06:16:01;12.30;;;7.82;;
23388;SDS011;11867;51.198;11.966;2023-06-10T06:17:24;9.32;;;6.60;;
23388;SDS011;11867;51.198;11.966;2023-06-10T06:18:46;11.90;;;7.60;;
23388;SDS011;11867;51.198;11.966;2023-06-10T06:20:09;9.32;;;6.88;;
23388;SDS011;11867;51.198;11.966;2023-06-10T06:21:33;10.25;;;6.47;;
23388;SDS011;11867;51.198;11.966;2023-06-10T06:22:56;9.63;;;6.50;;
23388;SDS011;11867;51.198;11.966;2023-06-10T06:24:18;10.93;;;6.47;;
23388;SDS011;11867;51.198;11.966;2023-06-10T06:25:41;9.85;;;6.57;;
23388;SDS011;11867;51.198;11.966;2023-06-10T06:27:05;9.38;;;6.95;;
23388;SDS011;11867;51.198;11.966;2023-06-10T06:28:28;9.15;;;6.60;;
23388;SDS011;11867;51.198;11.966;2023-06-10T06:29:52;9.40;;;6.65;;
23388;SDS011;11867;51.198;11.966;2023-06-10T06:31:16;10.55;;;6.60;;
23388;SDS011;11867;51.198;11.966;2023-06-10T06:32:38;9.15;;;6.20;;
23388;SDS011;11867;51.198;11.966;2023-06-10T06:34:01;11.57;;;7.55;;
23388;SDS011;11867;51.198;11.966;2023-06-10T06:35:23;12.27;;;7.00;;
23388;SDS011;11867;51.198;11.966;2023-06-10T06:36:46;11.88;;;6.72;;
23388;SDS011;11867;51.198;11.966;2023-06-10T06:38:09;12.10;;;7.00;;
23388;SDS011;11867;51.198;11.966;2023-06-10T06:39:32;13.25;;;6.63;;
23388;SDS011;11867;51.198;11.966;2023-06-10T06:40:55;9.55;;;6.78;;
23388;SDS011;11867;51.198;11.966;2023-06-10T06:42:19;10.70;;;7.35;;
23388;SDS011;11867;51.198;11.966;2023-06-10T06:43:43;10.05;;;6.40;;
23388;SDS011;11867;51.198;11.966;2023-06-10T06:45:06;11.30;;;6.93;;
23388;SDS011;11867;51.198;11.966;2023-06-10T06:46:29;10.32;;;6.40;;
23388;SDS011;11867;51.198;11.966;2023-06-10T06:47:51;9.55;;;6.60;;
23388;SDS011;11867;51.198;11.966;2023-06-10T06:49:13;7.35;;;6.53;;
23388;SDS011;11867;51.198;11.966;2023-06-10T06:50:36;10.13;;;7.20;;
23388;SDS011;11867;51.198;11.966;2023-06-10T06:51:59;9.50;;;7.10;;
23388;SDS011;11867;51.198;11.966;2023-06-10T06:53:22;12.15;;;7.20;;
23388;SDS011;11867;51.198;11.966;2023-06-10T06:54:45;10.15;;;7.35;;
23388;SDS011;11867;51.198;11.966;2023-06-10T06:56:07;13.32;;;8.07;;
23388;SDS011;11867;51.198;11.966;2023-06-10T06:57:31;13.60;;;7.18;;
23388;SDS011;11867;51.198;11.966;2023-06-10T06:58:54;12.60;;;7.10;;
23388;SDS011;11867;51.198;11.966;2023-06-10T07:00:19;13.18;;;7.03;;
23388;SDS011;11867;51.198;11.966;2023-06-10T07:01:41;11.00;;;7.07;;
23388;SDS011;11867;51.198;11.966;2023-06-10T07:03:03;11.10;;;7.32;;
23388;SDS011;11867;51.198;11.966;2023-06-10T07:04:26;14.85;;;7.50;;
23388;SDS011;11867;51.198;11.966;2023-06-10T07:05:50;11.57;;;7.18;;
23388;SDS011;11867;51.198;11.966;2023-06-10T07:07:13;11.80;;;7.10;;
23388;SDS011;11867;51.198;11.966;2023-06-10T07:08:36;11.10;;;7.10;;
23388;SDS011;11867;51.198;11.966;2023-06-10T07:09:58;10.85;;;7.25;;
23388;SDS011;11867;51.198;11.966;2023-06-10T07:11:20;11.18;;;7.60;;
23388;SDS011;11867;51.198;11.966;2023-06-10T07:12:45;13.10;;;7.32;;
23388;SDS011;11867;51.198;11.966;2023-06-10T07:14:07;9.63;;;7.53;;
23388;SDS011;11867;51.198;11.966;2023-06-10T07:15:30;10.32;;;6.85;;
23388;SDS011;11867;51.198;11.966;2023-06-10T07:16:54;13.52;;;7.47;;
23388;SDS011;11867;51.198;11.966;2023-06-10T07:18:17;9.98;;;7.63;;
23388;SDS011;11867;51.198;11.966;2023-06-10T07:19:40;11.63;;;6.88;;
23388;SDS011;11867;51.198;11.966;2023-06-10T07:21:02;11.52;;;6.93;;
23388;SDS011;11867;51.198;11.966;2023-06-10T07:22:25;9.95;;;7.28;;
23388;SDS011;11867;51.198;11.966;2023-06-10T07:23:47;9.52;;;7.18;;
23388;SDS011;11867;51.198;11.966;2023-06-10T07:25:10;11.60;;;7.50;;
23388;SDS011;11867;51.198;11.966;2023-06-10T07:26:33;14.00;;;7.35;;
23388;SDS011;11867;51.198;11.966;2023-06-10T07:27:57;12.00;;;8.13;;
23388;SDS011;11867;51.198;11.966;2023-06-10T07:29:20;10.88;;;7.28;;
23388;SDS011;11867;51.198;11.966;2023-06-10T07:30:43;12.55;;;8.07;;
23388;SDS011;11867;51.198;11.966;2023-06-10T07:32:07;11.38;;;7.35;;
23388;SDS011;11867;51.198;11.966;2023-06-10T07:33:29;13.45;;;8.48;;
23388;SDS011;11867;51.198;11.966;2023-06-10T07:34:52;14.85;;;7.95;;
23388;SDS011;11867;51.198;11.966;2023-06-10T07:36:14;11.85;;;8.07;;
23388;SDS011;11867;51.198;11.966;2023-06-10T07:37:37;14.93;;;7.75;;
23388;SDS011;11867;51.198;11.966;2023-06-10T07:39:00;13.20;;;8.30;;
23388;SDS011;11867;51.198;11.966;2023-06-10T07:40:23;14.25;;;8.82;;
23388;SDS011;11867;51.198;11.966;2023-06-10T07:41:45;12.73;;;8.80;;
23388;SDS011;11867;51.198;11.966;2023-06-10T07:43:11;13.43;;;8.60;;
23388;SDS011;11867;51.198;11.966;2023-06-10T07:44:33;10.80;;;7.95;;
23388;SDS011;11867;51.198;11.966;2023-06-10T07:45:56;13.75;;;8.13;;
23388;SDS011;11867;51.198;11.966;2023-06-10T07:47:19;9.95;;;7.28;;
23388;SDS011;11867;51.198;11.966;2023-06-10T07:48:42;12.23;;;7.88;;
23388;SDS011;11867;51.198;11.966;2023-06-10T07:50:05;9.35;;;7.40;;
23388;SDS011;11867;51.198;11.966;2023-06-10T07:51:28;17.27;;;7.85;;
23388;SDS011;11867;51.198;11.966;2023-06-10T07:52:50;11.27;;;7.82;;
23388;SDS011;11867;51.198;11.966;2023-06-10T07:54:13;10.48;;;7.75;;
23388;SDS011;11867;51.198;11.966;2023-06-10T07:55:38;11.80;;;8.02;;
23388;SDS011;11867;51.198;11.966;2023-06-10T07:57:01;10.00;;;7.85;;
23388;SDS011;11867;51.198;11.966;2023-06-10T07:58:25;11.48;;;8.70;;
23388;SDS011;11867;51.198;11.966;2023-06-10T07:59:48;11.40;;;7.70;;
23388;SDS011;11867;51.198;11.966;2023-06-10T08:01:11;13.30;;;7.50;;
23388;SDS011;11867;51.198;11.966;2023-06-10T08:02:34;13.48;;;8.88;;
23388;SDS011;11867;51.198;11.966;2023-06-10T08:03:57;10.75;;;7.70;;
23388;SDS011;11867;51.198;11.966;2023-06-10T08:05:20;11.60;;;7.78;;
23388;SDS011;11867;51.198;11.966;2023-06-10T08:06:43;11.48;;;8.52;;
23388;SDS011;11867;51.198;11.966;2023-06-10T08:08:06;11.32;;;8.02;;
23388;SDS011;11867;51.198;11.966;2023-06-10T08:09:29;13.43;;;8.25;;
23388;SDS011;11867;51.198;11.966;2023-06-10T08:10:52;10.80;;;7.72;;